sensor_id;sensor_type;location;lat;lon;timestamp;P1;durP1;ratioP1;P2;durP2;ratioP2
55021;SDS011;68328;35.990;-86.756;2023-11-18T00:01:23;10;;;10;;
55021;SDS011;68328;35.990;-86.756;2023-11-18T00:03:48;4;;;4;;
55021;SDS011;68328;35.990;-86.756;2023-11-18T00:06:14;3;;;3;;
55021;SDS011;68328;35.990;-86.756;2023-11-18T00:08:41;2;;;2;;
55021;SDS011;68328;35.990;-86.756;2023-11-18T00:11:04;2;;;2;;
55021;SDS011;68328;35.990;-86.756;2023-11-18T00:13:29;2;;;2;;
55021;SDS011;68328;35.990;-86.756;2023-11-18T00:15:54;2;;;2;;
55021;SDS011;68328;35.990;-86.756;2023-11-18T00:18:19;3;;;3;;
55021;SDS011;68328;35.990;-86.756;2023-11-18T00:20:44;5;;;2;;
55021;SDS011;68328;35.990;-86.756;2023-11-18T00:23:11;3;;;3;;
55021;SDS011;68328;35.990;-86.756;2023-11-18T00:25:35;2;;;2;;
55021;SDS011;68328;35.990;-86.756;2023-11-18T00:28:01;2;;;2;;
55021;SDS011;68328;35.990;-86.756;2023-11-18T00:30:25;3;;;2;;
55021;SDS011;68328;35.990;-86.756;2023-11-18T00:32:51;3;;;3;;
55021;SDS011;68328;35.990;-86.756;2023-11-18T00:35:16;3;;;2;;
55021;SDS011;68328;35.990;-86.756;2023-11-18T00:37:41;2;;;2;;
55021;SDS011;68328;35.990;-86.756;2023-11-18T00:40:07;3;;;3;;
55021;SDS011;68328;35.990;-86.756;2023-11-18T00:42:31;3;;;3;;
55021;SDS011;68328;35.990;-86.756;2023-11-18T00:44:57;3;;;3;;
55021;SDS011;68328;35.990;-86.756;2023-11-18T00:47:23;3;;;3;;
55021;SDS011;68328;35.990;-86.756;2023-11-18T00:49:47;2;;;2;;
55021;SDS011;68328;35.990;-86.756;2023-11-18T00:52:12;2;;;2;;
55021;SDS011;68328;35.990;-86.756;2023-11-18T00:54:38;6;;;3;;
55021;SDS011;68328;35.990;-86.756;2023-11-18T00:57:03;3;;;3;;
55021;SDS011;68328;35.990;-86.756;2023-11-18T00:59:30;2;;;2;;
55021;SDS011;68328;35.990;-86.756;2023-11-18T01:01:53;4;;;4;;
55021;SDS011;68328;35.990;-86.756;2023-11-18T01:04:19;5;;;4;;
55021;SDS011;68328;35.990;-86.756;2023-11-18T01:06:44;2;;;2;;
55021;SDS011;68328;35.990;-86.756;2023-11-18T01:09:09;16;;;14;;
55021;SDS011;68328;35.990;-86.756;2023-11-18T01:11:35;3;;;3;;
55021;SDS011;68328;35.990;-86.756;2023-11-18T01:14:00;2;;;2;;
55021;SDS011;68328;35.990;-86.756;2023-11-18T01:16:25;4;;;4;;
55021;SDS011;68328;35.990;-86.756;2023-11-18T01:18:50;11;;;11;;
55021;SDS011;68328;35.990;-86.756;2023-11-18T01:21:16;16;;;13;;
55021;SDS011;68328;35.990;-86.756;2023-11-18T01:23:43;15;;;15;;
55021;SDS011;68328;35.990;-86.756;2023-11-18T01:26:07;4;;;4;;
55021;SDS011;68328;35.990;-86.756;2023-11-18T01:28:33;2;;;2;;
55021;SDS011;68328;35.990;-86.756;2023-11-18T01:30:58;6;;;6;;
55021;SDS011;68328;35.990;-86.756;2023-11-18T01:33:23;6;;;5;;
55021;SDS011;68328;35.990;-86.756;2023-11-18T01:35:48;5;;;5;;
55021;SDS011;68328;35.990;-86.756;2023-11-18T01:38:13;8;;;8;;
55021;SDS011;68328;35.990;-86.756;2023-11-18T01:40:39;17;;;16;;
55021;SDS011;68328;35.990;-86.756;2023-11-18T01:43:05;9;;;9;;
55021;SDS011;68328;35.990;-86.756;2023-11-18T01:45:30;7;;;6;;
55021;SDS011;68328;35.990;-86.756;2023-11-18T01:47:56;4;;;4;;
55021;SDS011;68328;35.990;-86.756;2023-11-18T01:50:21;4;;;4;;
55021;SDS011;68328;35.990;-86.756;2023-11-18T01:52:46;9;;;8;;
55021;SDS011;68328;35.990;-86.756;2023-11-18T01:55:12;6;;;6;;
55021;SDS011;68328;35.990;-86.756;2023-11-18T01:57:37;6;;;6;;
55021;SDS011;68328;35.990;-86.756;2023-11-18T02:00:02;6;;;5;;
55021;SDS011;68328;35.990;-86.756;2023-11-18T02:02:28;10;;;8;;
55021;SDS011;68328;35.990;-86.756;2023-11-18T02:04:54;11;;;10;;
55021;SDS011;68328;35.990;-86.756;2023-11-18T02:07:19;6;;;6;;
55021;SDS011;68328;35.990;-86.756;2023-11-18T02:09:46;6;;;6;;
55021;SDS011;68328;35.990;-86.756;2023-11-18T02:12:15;5;;;5;;
55021;SDS011;68328;35.990;-86.756;2023-11-18T02:14:37;10;;;10;;
55021;SDS011;68328;35.990;-86.756;2023-11-18T02:17:02;17;;;17;;
55021;SDS011;68328;35.990;-86.756;2023-11-18T02:19:26;7;;;7;;
55021;SDS011;68328;35.990;-86.756;2023-11-18T02:21:52;8;;;8;;
55021;SDS011;68328;35.990;-86.756;2023-11-18T02:24:26;7;;;7;;
55021;SDS011;68328;35.990;-86.756;2023-11-18T02:26:43;5;;;5;;
55021;SDS011;68328;35.990;-86.756;2023-11-18T02:29:10;8;;;8;;
55021;SDS011;68328;35.990;-86.756;2023-11-18T02:31:34;14;;;14;;
55021;SDS011;68328;35.990;-86.756;2023-11-18T02:34:00;8;;;8;;
55021;SDS011;68328;35.990;-86.756;2023-11-18T02:36:26;9;;;8;;
55021;SDS011;68328;35.990;-86.756;2023-11-18T02:38:51;8;;;8;;
55021;SDS011;68328;35.990;-86.756;2023-11-18T02:41:16;8;;;7;;
55021;SDS011;68328;35.990;-86.756;2023-11-18T02:43:41;7;;;7;;
55021;SDS011;68328;35.990;-86.756;2023-11-18T02:46:06;8;;;8;;
55021;SDS011;68328;35.990;-86.756;2023-11-18T02:48:31;6;;;6;;
55021;SDS011;68328;35.990;-86.756;2023-11-18T02:50:57;9;;;9;;
55021;SDS011;68328;35.990;-86.756;2023-11-18T02:53:22;8;;;8;;
55021;SDS011;68328;35.990;-86.756;2023-11-18T02:55:48;7;;;7;;
55021;SDS011;68328;35.990;-86.756;2023-11-18T02:58:12;8;;;7;;
55021;SDS011;68328;35.990;-86.756;2023-11-18T03:00:38;11;;;11;;
55021;SDS011;68328;35.990;-86.756;2023-11-18T03:03:03;10;;;8;;
55021;SDS011;68328;35.990;-86.756;2023-11-18T03:05:29;11;;;8;;
55021;SDS011;68328;35.990;-86.756;2023-11-18T03:07:54;9;;;8;;
55021;SDS011;68328;35.990;-86.756;2023-11-18T03:10:19;9;;;8;;
55021;SDS011;68328;35.990;-86.756;2023-11-18T03:12:44;8;;;8;;
55021;SDS011;68328;35.990;-86.756;2023-11-18T03:15:10;7;;;7;;
55021;SDS011;68328;35.990;-86.756;2023-11-18T03:17:35;8;;;8;;
55021;SDS011;68328;35.990;-86.756;2023-11-18T03:20:02;11;;;10;;
55021;SDS011;68328;35.990;-86.756;2023-11-18T03:22:26;11;;;11;;
55021;SDS011;68328;35.990;-86.756;2023-11-18T03:24:52;15;;;14;;
55021;SDS011;68328;35.990;-86.756;2023-11-18T03:27:18;11;;;11;;
55021;SDS011;68328;35.990;-86.756;2023-11-18T03:29:43;9;;;9;;
55021;SDS011;68328;35.990;-86.756;2023-11-18T03:32:08;12;;;12;;
55021;SDS011;68328;35.990;-86.756;2023-11-18T03:34:33;13;;;13;;
55021;SDS011;68328;35.990;-86.756;2023-11-18T03:36:59;13;;;11;;
55021;SDS011;68328;35.990;-86.756;2023-11-18T03:39:23;15;;;13;;
55021;SDS011;68328;35.990;-86.756;2023-11-18T03:41:49;12;;;12;;
55021;SDS011;68328;35.990;-86.756;2023-11-18T03:44:14;11;;;11;;
55021;SDS011;68328;35.990;-86.756;2023-11-18T03:46:39;9;;;9;;
55021;SDS011;68328;35.990;-86.756;2023-11-18T03:49:04;12;;;12;;
55021;SDS011;68328;35.990;-86.756;2023-11-18T03:51:30;12;;;11;;
55021;SDS011;68328;35.990;-86.756;2023-11-18T03:53:55;15;;;14;;
55021;SDS011;68328;35.990;-86.756;2023-11-18T03:56:20;13;;;12;;
55021;SDS011;68328;35.990;-86.756;2023-11-18T03:58:46;17;;;17;;
55021;SDS011;68328;35.990;-86.756;2023-11-18T04:01:11;11;;;11;;
55021;SDS011;68328;35.990;-86.756;2023-11-18T04:03:37;12;;;12;;
55021;SDS011;68328;35.990;-86.756;2023-11-18T04:06:02;12;;;12;;
55021;SDS011;68328;35.990;-86.756;2023-11-18T04:08:27;14;;;14;;
55021;SDS011;68328;35.990;-86.756;2023-11-18T04:10:53;13;;;13;;
55021;SDS011;68328;35.990;-86.756;2023-11-18T04:13:18;15;;;14;;
55021;SDS011;68328;35.990;-86.756;2023-11-18T04:15:43;18;;;16;;
55021;SDS011;68328;35.990;-86.756;2023-11-18T04:18:08;13;;;13;;
55021;SDS011;68328;35.990;-86.756;2023-11-18T04:20:34;16;;;15;;
55021;SDS011;68328;35.990;-86.756;2023-11-18T04:23:00;15;;;14;;
55021;SDS011;68328;35.990;-86.756;2023-11-18T04:25:25;13;;;13;;
55021;SDS011;68328;35.990;-86.756;2023-11-18T04:27:51;14;;;14;;
55021;SDS011;68328;35.990;-86.756;2023-11-18T04:30:17;13;;;13;;
55021;SDS011;68328;35.990;-86.756;2023-11-18T04:32:42;17;;;15;;
55021;SDS011;68328;35.990;-86.756;2023-11-18T04:35:09;18;;;18;;
55021;SDS011;68328;35.990;-86.756;2023-11-18T04:37:34;16;;;16;;
55021;SDS011;68328;35.990;-86.756;2023-11-18T04:39:59;19;;;18;;
55021;SDS011;68328;35.990;-86.756;2023-11-18T04:42:25;19;;;18;;
55021;SDS011;68328;35.990;-86.756;2023-11-18T04:44:51;23;;;21;;
55021;SDS011;68328;35.990;-86.756;2023-11-18T04:47:16;17;;;13;;
55021;SDS011;68328;35.990;-86.756;2023-11-18T04:49:41;14;;;14;;
55021;SDS011;68328;35.990;-86.756;2023-11-18T04:52:07;12;;;12;;
55021;SDS011;68328;35.990;-86.756;2023-11-18T04:54:32;14;;;14;;
55021;SDS011;68328;35.990;-86.756;2023-11-18T04:56:57;16;;;13;;
55021;SDS011;68328;35.990;-86.756;2023-11-18T04:59:22;15;;;14;;
55021;SDS011;68328;35.990;-86.756;2023-11-18T05:01:47;11;;;11;;
55021;SDS011;68328;35.990;-86.756;2023-11-18T05:04:14;17;;;16;;
55021;SDS011;68328;35.990;-86.756;2023-11-18T05:06:39;14;;;14;;
55021;SDS011;68328;35.990;-86.756;2023-11-18T05:09:04;15;;;15;;
55021;SDS011;68328;35.990;-86.756;2023-11-18T05:11:30;15;;;15;;
55021;SDS011;68328;35.990;-86.756;2023-11-18T05:13:57;21;;;20;;
55021;SDS011;68328;35.990;-86.756;2023-11-18T05:16:22;17;;;15;;
55021;SDS011;68328;35.990;-86.756;2023-11-18T05:18:47;18;;;17;;
55021;SDS011;68328;35.990;-86.756;2023-11-18T05:21:14;14;;;14;;
55021;SDS011;68328;35.990;-86.756;2023-11-18T05:23:38;16;;;15;;
55021;SDS011;68328;35.990;-86.756;2023-11-18T05:26:05;21;;;20;;
55021;SDS011;68328;35.990;-86.756;2023-11-18T05:28:30;19;;;15;;
55021;SDS011;68328;35.990;-86.756;2023-11-18T05:30:54;14;;;13;;
55021;SDS011;68328;35.990;-86.756;2023-11-18T05:33:20;17;;;17;;
55021;SDS011;68328;35.990;-86.756;2023-11-18T05:35:46;14;;;14;;
55021;SDS011;68328;35.990;-86.756;2023-11-18T05:38:11;12;;;11;;
55021;SDS011;68328;35.990;-86.756;2023-11-18T05:40:37;15;;;15;;
55021;SDS011;68328;35.990;-86.756;2023-11-18T05:43:02;21;;;19;;
55021;SDS011;68328;35.990;-86.756;2023-11-18T05:45:28;13;;;12;;
55021;SDS011;68328;35.990;-86.756;2023-11-18T05:47:54;17;;;15;;
55021;SDS011;68328;35.990;-86.756;2023-11-18T05:50:19;14;;;14;;
55021;SDS011;68328;35.990;-86.756;2023-11-18T05:52:45;20;;;20;;
55021;SDS011;68328;35.990;-86.756;2023-11-18T05:55:10;16;;;14;;
55021;SDS011;68328;35.990;-86.756;2023-11-18T05:57:35;17;;;16;;
55021;SDS011;68328;35.990;-86.756;2023-11-18T06:00:01;21;;;21;;
55021;SDS011;68328;35.990;-86.756;2023-11-18T06:02:26;13;;;13;;
55021;SDS011;68328;35.990;-86.756;2023-11-18T06:04:53;19;;;18;;
55021;SDS011;68328;35.990;-86.756;2023-11-18T06:07:18;14;;;13;;
55021;SDS011;68328;35.990;-86.756;2023-11-18T06:09:44;14;;;14;;
55021;SDS011;68328;35.990;-86.756;2023-11-18T06:12:11;15;;;13;;
55021;SDS011;68328;35.990;-86.756;2023-11-18T06:14:35;19;;;19;;
55021;SDS011;68328;35.990;-86.756;2023-11-18T06:17:00;16;;;14;;
55021;SDS011;68328;35.990;-86.756;2023-11-18T06:19:26;13;;;12;;
55021;SDS011;68328;35.990;-86.756;2023-11-18T06:21:51;14;;;14;;
55021;SDS011;68328;35.990;-86.756;2023-11-18T06:24:16;15;;;13;;
55021;SDS011;68328;35.990;-86.756;2023-11-18T06:26:42;16;;;16;;
55021;SDS011;68328;35.990;-86.756;2023-11-18T06:29:09;15;;;15;;
55021;SDS011;68328;35.990;-86.756;2023-11-18T06:31:33;18;;;16;;
55021;SDS011;68328;35.990;-86.756;2023-11-18T06:33:59;16;;;16;;
55021;SDS011;68328;35.990;-86.756;2023-11-18T06:36:25;16;;;15;;
55021;SDS011;68328;35.990;-86.756;2023-11-18T06:38:50;17;;;14;;
55021;SDS011;68328;35.990;-86.756;2023-11-18T06:41:15;19;;;18;;
55021;SDS011;68328;35.990;-86.756;2023-11-18T06:43:41;16;;;15;;
55021;SDS011;68328;35.990;-86.756;2023-11-18T06:46:07;21;;;18;;
55021;SDS011;68328;35.990;-86.756;2023-11-18T06:48:33;20;;;18;;
55021;SDS011;68328;35.990;-86.756;2023-11-18T06:50:58;18;;;18;;
55021;SDS011;68328;35.990;-86.756;2023-11-18T06:53:24;15;;;15;;
55021;SDS011;68328;35.990;-86.756;2023-11-18T06:55:49;26;;;24;;
55021;SDS011;68328;35.990;-86.756;2023-11-18T06:58:15;20;;;19;;
55021;SDS011;68328;35.990;-86.756;2023-11-18T07:00:41;15;;;15;;
55021;SDS011;68328;35.990;-86.756;2023-11-18T07:03:06;19;;;17;;
55021;SDS011;68328;35.990;-86.756;2023-11-18T07:05:31;27;;;26;;
55021;SDS011;68328;35.990;-86.756;2023-11-18T07:07:57;27;;;25;;
55021;SDS011;68328;35.990;-86.756;2023-11-18T07:10:23;27;;;25;;
55021;SDS011;68328;35.990;-86.756;2023-11-18T07:12:49;24;;;24;;
55021;SDS011;68328;35.990;-86.756;2023-11-18T07:15:14;20;;;19;;
55021;SDS011;68328;35.990;-86.756;2023-11-18T07:17:39;19;;;19;;
55021;SDS011;68328;35.990;-86.756;2023-11-18T07:20:05;22;;;21;;
55021;SDS011;68328;35.990;-86.756;2023-11-18T07:22:30;17;;;17;;
55021;SDS011;68328;35.990;-86.756;2023-11-18T07:24:56;21;;;21;;
55021;SDS011;68328;35.990;-86.756;2023-11-18T07:27:21;16;;;15;;
55021;SDS011;68328;35.990;-86.756;2023-11-18T07:29:47;53;;;51;;
55021;SDS011;68328;35.990;-86.756;2023-11-18T07:32:13;71;;;63;;
55021;SDS011;68328;35.990;-86.756;2023-11-18T07:34:38;31;;;30;;
55021;SDS011;68328;35.990;-86.756;2023-11-18T07:37:03;15;;;15;;
55021;SDS011;68328;35.990;-86.756;2023-11-18T07:39:28;18;;;16;;
55021;SDS011;68328;35.990;-86.756;2023-11-18T07:41:54;23;;;19;;
55021;SDS011;68328;35.990;-86.756;2023-11-18T07:44:20;13;;;12;;
55021;SDS011;68328;35.990;-86.756;2023-11-18T07:46:45;17;;;16;;
55021;SDS011;68328;35.990;-86.756;2023-11-18T07:49:11;13;;;13;;
55021;SDS011;68328;35.990;-86.756;2023-11-18T07:51:36;14;;;14;;
55021;SDS011;68328;35.990;-86.756;2023-11-18T07:54:01;16;;;14;;
55021;SDS011;68328;35.990;-86.756;2023-11-18T07:56:27;21;;;19;;
55021;SDS011;68328;35.990;-86.756;2023-11-18T07:58:53;14;;;12;;
55021;SDS011;68328;35.990;-86.756;2023-11-18T08:01:18;14;;;13;;
55021;SDS011;68328;35.990;-86.756;2023-11-18T08:03:43;14;;;13;;
55021;SDS011;68328;35.990;-86.756;2023-11-18T08:06:09;14;;;14;;
55021;SDS011;68328;35.990;-86.756;2023-11-18T08:08:35;16;;;14;;
55021;SDS011;68328;35.990;-86.756;2023-11-18T08:11:01;15;;;14;;
55021;SDS011;68328;35.990;-86.756;2023-11-18T08:13:26;18;;;16;;
55021;SDS011;68328;35.990;-86.756;2023-11-18T08:15:51;16;;;16;;
55021;SDS011;68328;35.990;-86.756;2023-11-18T08:18:18;15;;;15;;
55021;SDS011;68328;35.990;-86.756;2023-11-18T08:20:43;14;;;14;;
55021;SDS011;68328;35.990;-86.756;2023-11-18T08:23:09;21;;;20;;
55021;SDS011;68328;35.990;-86.756;2023-11-18T08:25:34;22;;;22;;
55021;SDS011;68328;35.990;-86.756;2023-11-18T08:27:59;17;;;16;;
55021;SDS011;68328;35.990;-86.756;2023-11-18T08:30:25;19;;;18;;
55021;SDS011;68328;35.990;-86.756;2023-11-18T08:32:50;17;;;16;;
55021;SDS011;68328;35.990;-86.756;2023-11-18T08:35:16;22;;;22;;
55021;SDS011;68328;35.990;-86.756;2023-11-18T08:37:41;18;;;16;;
55021;SDS011;68328;35.990;-86.756;2023-11-18T08:40:08;20;;;19;;
55021;SDS011;68328;35.990;-86.756;2023-11-18T08:42:31;17;;;17;;
55021;SDS011;68328;35.990;-86.756;2023-11-18T08:44:58;18;;;15;;
55021;SDS011;68328;35.990;-86.756;2023-11-18T08:47:23;19;;;18;;
55021;SDS011;68328;35.990;-86.756;2023-11-18T08:49:47;14;;;14;;
55021;SDS011;68328;35.990;-86.756;2023-11-18T08:52:13;20;;;20;;
55021;SDS011;68328;35.990;-86.756;2023-11-18T08:54:38;15;;;15;;
55021;SDS011;68328;35.990;-86.756;2023-11-18T08:57:04;19;;;19;;
55021;SDS011;68328;35.990;-86.756;2023-11-18T08:59:29;18;;;16;;
55021;SDS011;68328;35.990;-86.756;2023-11-18T09:01:55;16;;;15;;
55021;SDS011;68328;35.990;-86.756;2023-11-18T09:04:20;20;;;17;;
55021;SDS011;68328;35.990;-86.756;2023-11-18T09:06:45;18;;;18;;
55021;SDS011;68328;35.990;-86.756;2023-11-18T09:09:11;16;;;16;;
55021;SDS011;68328;35.990;-86.756;2023-11-18T09:11:37;23;;;22;;
55021;SDS011;68328;35.990;-86.756;2023-11-18T09:14:02;18;;;18;;
55021;SDS011;68328;35.990;-86.756;2023-11-18T09:16:28;22;;;20;;
55021;SDS011;68328;35.990;-86.756;2023-11-18T09:18:53;19;;;19;;
55021;SDS011;68328;35.990;-86.756;2023-11-18T09:21:18;26;;;24;;
55021;SDS011;68328;35.990;-86.756;2023-11-18T09:23:45;19;;;17;;
55021;SDS011;68328;35.990;-86.756;2023-11-18T09:26:09;20;;;19;;
55021;SDS011;68328;35.990;-86.756;2023-11-18T09:28:35;21;;;21;;
55021;SDS011;68328;35.990;-86.756;2023-11-18T09:31:00;27;;;27;;
55021;SDS011;68328;35.990;-86.756;2023-11-18T09:33:26;21;;;21;;
55021;SDS011;68328;35.990;-86.756;2023-11-18T09:35:52;27;;;27;;
55021;SDS011;68328;35.990;-86.756;2023-11-18T09:38:17;25;;;24;;
55021;SDS011;68328;35.990;-86.756;2023-11-18T09:40:43;24;;;23;;
55021;SDS011;68328;35.990;-86.756;2023-11-18T09:43:07;21;;;19;;
55021;SDS011;68328;35.990;-86.756;2023-11-18T09:45:34;25;;;23;;
55021;SDS011;68328;35.990;-86.756;2023-11-18T09:47:58;21;;;20;;
55021;SDS011;68328;35.990;-86.756;2023-11-18T09:50:24;22;;;21;;
55021;SDS011;68328;35.990;-86.756;2023-11-18T09:52:49;21;;;20;;
55021;SDS011;68328;35.990;-86.756;2023-11-18T09:55:15;23;;;23;;
55021;SDS011;68328;35.990;-86.756;2023-11-18T09:57:40;19;;;19;;
55021;SDS011;68328;35.990;-86.756;2023-11-18T10:00:06;25;;;21;;
55021;SDS011;68328;35.990;-86.756;2023-11-18T10:02:30;25;;;23;;
55021;SDS011;68328;35.990;-86.756;2023-11-18T10:04:56;19;;;19;;
55021;SDS011;68328;35.990;-86.756;2023-11-18T10:07:21;22;;;19;;
55021;SDS011;68328;35.990;-86.756;2023-11-18T10:09:47;25;;;22;;
55021;SDS011;68328;35.990;-86.756;2023-11-18T10:12:12;20;;;16;;
55021;SDS011;68328;35.990;-86.756;2023-11-18T10:14:41;19;;;18;;
55021;SDS011;68328;35.990;-86.756;2023-11-18T10:17:04;27;;;26;;
55021;SDS011;68328;35.990;-86.756;2023-11-18T10:21:54;21;;;20;;
55021;SDS011;68328;35.990;-86.756;2023-11-18T10:24:19;21;;;21;;
55021;SDS011;68328;35.990;-86.756;2023-11-18T10:26:45;18;;;18;;
55021;SDS011;68328;35.990;-86.756;2023-11-18T10:29:11;24;;;23;;
55021;SDS011;68328;35.990;-86.756;2023-11-18T10:31:36;25;;;22;;
55021;SDS011;68328;35.990;-86.756;2023-11-18T10:34:03;26;;;22;;
55021;SDS011;68328;35.990;-86.756;2023-11-18T10:36:27;18;;;17;;
55021;SDS011;68328;35.990;-86.756;2023-11-18T10:38:53;22;;;21;;
55021;SDS011;68328;35.990;-86.756;2023-11-18T10:41:19;27;;;26;;
55021;SDS011;68328;35.990;-86.756;2023-11-18T10:43:44;26;;;22;;
55021;SDS011;68328;35.990;-86.756;2023-11-18T10:46:10;19;;;18;;
55021;SDS011;68328;35.990;-86.756;2023-11-18T10:48:34;17;;;15;;
55021;SDS011;68328;35.990;-86.756;2023-11-18T10:51:00;25;;;25;;
55021;SDS011;68328;35.990;-86.756;2023-11-18T10:53:26;28;;;26;;
55021;SDS011;68328;35.990;-86.756;2023-11-18T10:55:52;19;;;18;;
55021;SDS011;68328;35.990;-86.756;2023-11-18T10:58:17;25;;;23;;
55021;SDS011;68328;35.990;-86.756;2023-11-18T11:00:47;15;;;15;;
55021;SDS011;68328;35.990;-86.756;2023-11-18T11:03:08;20;;;20;;
55021;SDS011;68328;35.990;-86.756;2023-11-18T11:05:32;25;;;22;;
55021;SDS011;68328;35.990;-86.756;2023-11-18T11:07:58;20;;;19;;
55021;SDS011;68328;35.990;-86.756;2023-11-18T11:10:23;20;;;18;;
55021;SDS011;68328;35.990;-86.756;2023-11-18T11:12:50;19;;;18;;
55021;SDS011;68328;35.990;-86.756;2023-11-18T11:15:16;21;;;21;;
55021;SDS011;68328;35.990;-86.756;2023-11-18T11:17:40;22;;;21;;
55021;SDS011;68328;35.990;-86.756;2023-11-18T11:20:05;29;;;28;;
55021;SDS011;68328;35.990;-86.756;2023-11-18T11:22:38;27;;;27;;
55021;SDS011;68328;35.990;-86.756;2023-11-18T11:24:59;22;;;17;;
55021;SDS011;68328;35.990;-86.756;2023-11-18T11:27:23;28;;;26;;
55021;SDS011;68328;35.990;-86.756;2023-11-18T11:29:49;22;;;22;;
55021;SDS011;68328;35.990;-86.756;2023-11-18T11:32:15;25;;;23;;
55021;SDS011;68328;35.990;-86.756;2023-11-18T11:34:39;29;;;26;;
55021;SDS011;68328;35.990;-86.756;2023-11-18T11:37:03;27;;;26;;
55021;SDS011;68328;35.990;-86.756;2023-11-18T11:39:29;25;;;22;;
55021;SDS011;68328;35.990;-86.756;2023-11-18T11:41:55;25;;;24;;
55021;SDS011;68328;35.990;-86.756;2023-11-18T11:44:20;25;;;25;;
55021;SDS011;68328;35.990;-86.756;2023-11-18T11:46:45;24;;;19;;
55021;SDS011;68328;35.990;-86.756;2023-11-18T11:49:10;21;;;21;;
55021;SDS011;68328;35.990;-86.756;2023-11-18T11:51:36;19;;;19;;
55021;SDS011;68328;35.990;-86.756;2023-11-18T11:54:04;20;;;18;;
55021;SDS011;68328;35.990;-86.756;2023-11-18T11:58:53;17;;;17;;
55021;SDS011;68328;35.990;-86.756;2023-11-18T12:01:22;18;;;18;;
55021;SDS011;68328;35.990;-86.756;2023-11-18T12:03:43;22;;;21;;
55021;SDS011;68328;35.990;-86.756;2023-11-18T12:06:08;20;;;18;;
55021;SDS011;68328;35.990;-86.756;2023-11-18T12:08:35;32;;;25;;
55021;SDS011;68328;35.990;-86.756;2023-11-18T12:11:01;30;;;28;;
55021;SDS011;68328;35.990;-86.756;2023-11-18T12:13:25;19;;;18;;
55021;SDS011;68328;35.990;-86.756;2023-11-18T12:15:52;24;;;22;;
55021;SDS011;68328;35.990;-86.756;2023-11-18T12:18:16;22;;;21;;
55021;SDS011;68328;35.990;-86.756;2023-11-18T12:20:43;25;;;25;;
55021;SDS011;68328;35.990;-86.756;2023-11-18T12:23:08;28;;;28;;
55021;SDS011;68328;35.990;-86.756;2023-11-18T12:25:33;20;;;18;;
55021;SDS011;68328;35.990;-86.756;2023-11-18T12:27:58;25;;;24;;
55021;SDS011;68328;35.990;-86.756;2023-11-18T12:32:58;26;;;24;;
55021;SDS011;68328;35.990;-86.756;2023-11-18T12:35:14;21;;;21;;
55021;SDS011;68328;35.990;-86.756;2023-11-18T12:47:23;23;;;22;;
55021;SDS011;68328;35.990;-86.756;2023-11-18T12:49:47;19;;;18;;
55021;SDS011;68328;35.990;-86.756;2023-11-18T12:52:13;18;;;18;;
55021;SDS011;68328;35.990;-86.756;2023-11-18T12:54:38;22;;;22;;
55021;SDS011;68328;35.990;-86.756;2023-11-18T12:57:05;20;;;20;;
55021;SDS011;68328;35.990;-86.756;2023-11-18T12:59:30;23;;;21;;
55021;SDS011;68328;35.990;-86.756;2023-11-18T13:01:55;29;;;29;;
55021;SDS011;68328;35.990;-86.756;2023-11-18T13:04:20;24;;;23;;
55021;SDS011;68328;35.990;-86.756;2023-11-18T13:06:45;25;;;24;;
55021;SDS011;68328;35.990;-86.756;2023-11-18T13:09:11;25;;;25;;
55021;SDS011;68328;35.990;-86.756;2023-11-18T13:11:37;22;;;22;;
55021;SDS011;68328;35.990;-86.756;2023-11-18T13:14:01;25;;;21;;
55021;SDS011;68328;35.990;-86.756;2023-11-18T13:16:28;29;;;29;;
55021;SDS011;68328;35.990;-86.756;2023-11-18T13:18:53;23;;;18;;
55021;SDS011;68328;35.990;-86.756;2023-11-18T13:21:19;29;;;22;;
55021;SDS011;68328;35.990;-86.756;2023-11-18T13:23:45;29;;;27;;
55021;SDS011;68328;35.990;-86.756;2023-11-18T13:26:09;21;;;21;;
55021;SDS011;68328;35.990;-86.756;2023-11-18T13:28:34;25;;;25;;
55021;SDS011;68328;35.990;-86.756;2023-11-18T13:30:59;23;;;23;;
55021;SDS011;68328;35.990;-86.756;2023-11-18T13:33:25;25;;;22;;
55021;SDS011;68328;35.990;-86.756;2023-11-18T13:35:50;27;;;27;;
55021;SDS011;68328;35.990;-86.756;2023-11-18T13:38:17;28;;;28;;
55021;SDS011;68328;35.990;-86.756;2023-11-18T13:40:42;30;;;25;;
55021;SDS011;68328;35.990;-86.756;2023-11-18T13:43:07;21;;;20;;
55021;SDS011;68328;35.990;-86.756;2023-11-18T13:45:33;28;;;23;;
55021;SDS011;68328;35.990;-86.756;2023-11-18T13:47:59;28;;;26;;
55021;SDS011;68328;35.990;-86.756;2023-11-18T13:50:23;23;;;23;;
55021;SDS011;68328;35.990;-86.756;2023-11-18T13:52:49;22;;;20;;
55021;SDS011;68328;35.990;-86.756;2023-11-18T13:55:15;22;;;22;;
55021;SDS011;68328;35.990;-86.756;2023-11-18T13:57:39;25;;;24;;
55021;SDS011;68328;35.990;-86.756;2023-11-18T14:00:05;23;;;21;;
55021;SDS011;68328;35.990;-86.756;2023-11-18T14:02:30;19;;;18;;
55021;SDS011;68328;35.990;-86.756;2023-11-18T14:04:55;22;;;21;;
55021;SDS011;68328;35.990;-86.756;2023-11-18T14:07:22;24;;;24;;
55021;SDS011;68328;35.990;-86.756;2023-11-18T14:09:47;25;;;25;;
55021;SDS011;68328;35.990;-86.756;2023-11-18T14:12:13;18;;;18;;
55021;SDS011;68328;35.990;-86.756;2023-11-18T14:14:38;18;;;18;;
55021;SDS011;68328;35.990;-86.756;2023-11-18T14:17:03;18;;;18;;
55021;SDS011;68328;35.990;-86.756;2023-11-18T14:19:29;23;;;21;;
55021;SDS011;68328;35.990;-86.756;2023-11-18T14:21:54;18;;;18;;
55021;SDS011;68328;35.990;-86.756;2023-11-18T14:24:19;18;;;16;;
55021;SDS011;68328;35.990;-86.756;2023-11-18T14:26:45;21;;;19;;
55021;SDS011;68328;35.990;-86.756;2023-11-18T14:29:09;18;;;18;;
55021;SDS011;68328;35.990;-86.756;2023-11-18T14:31:34;21;;;19;;
55021;SDS011;68328;35.990;-86.756;2023-11-18T14:34:01;15;;;14;;
55021;SDS011;68328;35.990;-86.756;2023-11-18T14:36:25;17;;;16;;
55021;SDS011;68328;35.990;-86.756;2023-11-18T14:38:50;16;;;15;;
55021;SDS011;68328;35.990;-86.756;2023-11-18T14:41:15;19;;;17;;
55021;SDS011;68328;35.990;-86.756;2023-11-18T14:43:40;18;;;16;;
55021;SDS011;68328;35.990;-86.756;2023-11-18T14:46:07;18;;;16;;
55021;SDS011;68328;35.990;-86.756;2023-11-18T14:48:31;15;;;13;;
55021;SDS011;68328;35.990;-86.756;2023-11-18T14:50:56;14;;;14;;
55021;SDS011;68328;35.990;-86.756;2023-11-18T14:53:22;16;;;16;;
55021;SDS011;68328;35.990;-86.756;2023-11-18T14:55:47;14;;;14;;
55021;SDS011;68328;35.990;-86.756;2023-11-18T14:58:12;20;;;19;;
55021;SDS011;68328;35.990;-86.756;2023-11-18T15:00:38;14;;;14;;
55021;SDS011;68328;35.990;-86.756;2023-11-18T15:03:05;17;;;16;;
55021;SDS011;68328;35.990;-86.756;2023-11-18T15:05:30;21;;;20;;
55021;SDS011;68328;35.990;-86.756;2023-11-18T15:07:54;22;;;21;;
55021;SDS011;68328;35.990;-86.756;2023-11-18T15:10:20;20;;;18;;
55021;SDS011;68328;35.990;-86.756;2023-11-18T15:12:44;22;;;20;;
55021;SDS011;68328;35.990;-86.756;2023-11-18T15:15:11;16;;;16;;
55021;SDS011;68328;35.990;-86.756;2023-11-18T15:17:36;17;;;16;;
55021;SDS011;68328;35.990;-86.756;2023-11-18T15:20:00;14;;;14;;
55021;SDS011;68328;35.990;-86.756;2023-11-18T15:22:26;16;;;16;;
55021;SDS011;68328;35.990;-86.756;2023-11-18T15:24:51;13;;;13;;